Terminal Aerodrome Forecast
Issued by NWS

Home | Current Version | Previous Version | Text Only | Print | Product List | Glossary On
Versions: 1 2 3 4 5 6 7 8 9 10 11 12 13
000
FTUS45 KGJT 290540
TAFDRO
TAF
KDRO 290540Z 2906/3006 25006KT P6SM VCSH FEW050 SCT070 BKN100
     FM291100 05004KT P6SM VCSH SCT060 BKN090
     FM291900 13007KT P6SM VCTS SCT070 BKN090CB
     FM300100 10006KT P6SM VCSH BKN070=

USA.gov is the U.S. government's official web portal to all federal, state and local government web resources and services.